sensor_id;sensor_type;location;lat;lon;timestamp;pressure;altitude;pressure_sealevel;temperature;humidity
6853;BME280;3465;42.144;24.722;2023-03-04T00:01:34;143908.09;;;3.93;100.00
6853;BME280;3465;42.144;24.722;2023-03-04T00:03:59;143895.66;;;3.88;100.00
6853;BME280;3465;42.144;24.722;2023-03-04T00:06:25;143885.69;;;3.84;100.00
6853;BME280;3465;42.144;24.722;2023-03-04T00:08:50;143888.19;;;3.85;100.00
6853;BME280;3465;42.144;24.722;2023-03-04T00:11:16;143893.13;;;3.87;100.00
6853;BME280;3465;42.144;24.722;2023-03-04T00:13:41;143894.41;;;3.88;100.00
6853;BME280;3465;42.144;24.722;2023-03-04T00:16:06;143905.59;;;3.92;100.00
6853;BME280;3465;42.144;24.722;2023-03-04T00:18:32;143901.84;;;3.91;100.00
6853;BME280;3465;42.144;24.722;2023-03-04T00:20:57;143910.59;;;3.94;100.00
6853;BME280;3465;42.144;24.722;2023-03-04T00:23:23;143906.84;;;3.93;100.00
6853;BME280;3465;42.144;24.722;2023-03-04T00:25:48;143886.94;;;3.85;100.00
6853;BME280;3465;42.144;24.722;2023-03-04T00:28:13;143901.84;;;3.91;100.00
6853;BME280;3465;42.144;24.722;2023-03-04T00:30:39;143889.41;;;3.86;100.00
6853;BME280;3465;42.144;24.722;2023-03-04T00:33:04;143886.94;;;3.85;100.00
6853;BME280;3465;42.144;24.722;2023-03-04T00:35:30;143848.38;;;3.69;100.00
6853;BME280;3465;42.144;24.722;2023-03-04T00:37:55;143857.03;;;3.73;100.00
6853;BME280;3465;42.144;24.722;2023-03-04T00:40:20;143872.00;;;3.79;100.00
6853;BME280;3465;42.144;24.722;2023-03-04T00:42:46;143874.47;;;3.80;100.00
6853;BME280;3465;42.144;24.722;2023-03-04T00:45:11;143867.03;;;3.77;100.00
6853;BME280;3465;42.144;24.722;2023-03-04T00:47:37;143865.75;;;3.76;100.00
6853;BME280;3465;42.144;24.722;2023-03-04T00:50:02;143818.50;;;3.57;100.00
6853;BME280;3465;42.144;24.722;2023-03-04T00:52:28;143843.38;;;3.67;100.00
6853;BME280;3465;42.144;24.722;2023-03-04T00:54:53;143845.84;;;3.68;100.00
6853;BME280;3465;42.144;24.722;2023-03-04T00:57:19;143855.84;;;3.72;100.00
6853;BME280;3465;42.144;24.722;2023-03-04T00:59:44;143840.88;;;3.66;100.00
6853;BME280;3465;42.144;24.722;2023-03-04T01:02:11;143776.19;;;3.40;100.00
6853;BME280;3465;42.144;24.722;2023-03-04T01:04:36;143901.84;;;3.91;100.00
6853;BME280;3465;42.144;24.722;2023-03-04T01:07:02;143875.75;;;3.80;100.00
6853;BME280;3465;42.144;24.722;2023-03-04T01:09:27;143855.84;;;3.72;100.00
6853;BME280;3465;42.144;24.722;2023-03-04T01:11:53;143855.84;;;3.72;100.00
6853;BME280;3465;42.144;24.722;2023-03-04T01:14:19;143886.94;;;3.85;100.00
6853;BME280;3465;42.144;24.722;2023-03-04T01:16:44;143865.75;;;3.76;100.00
6853;BME280;3465;42.144;24.722;2023-03-04T01:19:09;143898.13;;;3.89;100.00
6853;BME280;3465;42.144;24.722;2023-03-04T01:21:35;143888.19;;;3.85;100.00
6853;BME280;3465;42.144;24.722;2023-03-04T01:24:00;143880.69;;;3.82;100.00
6853;BME280;3465;42.144;24.722;2023-03-04T01:26:26;143880.69;;;3.82;100.00
6853;BME280;3465;42.144;24.722;2023-03-04T01:28:51;143900.59;;;3.90;100.00
6853;BME280;3465;42.144;24.722;2023-03-04T01:31:16;143891.94;;;3.87;100.00
6853;BME280;3465;42.144;24.722;2023-03-04T01:33:42;143942.97;;;4.07;100.00
6853;BME280;3465;42.144;24.722;2023-03-04T01:36:07;143931.75;;;4.03;100.00
6853;BME280;3465;42.144;24.722;2023-03-04T01:38:33;143942.97;;;4.07;100.00
6853;BME280;3465;42.144;24.722;2023-03-04T01:40:58;143957.88;;;4.13;100.00
6853;BME280;3465;42.144;24.722;2023-03-04T01:43:26;143966.59;;;4.17;100.00
6853;BME280;3465;42.144;24.722;2023-03-04T01:45:53;143945.44;;;4.08;100.00
6853;BME280;3465;42.144;24.722;2023-03-04T01:48:28;143893.13;;;3.87;100.00
6853;BME280;3465;42.144;24.722;2023-03-04T01:50:56;143962.88;;;4.15;100.00
6853;BME280;3465;42.144;24.722;2023-03-04T01:53:25;143960.34;;;4.14;100.00
6853;BME280;3465;42.144;24.722;2023-03-04T01:55:53;143940.44;;;4.06;100.00
6853;BME280;3465;42.144;24.722;2023-03-04T01:58:19;143962.88;;;4.15;100.00
6853;BME280;3465;42.144;24.722;2023-03-04T02:00:45;143954.16;;;4.12;100.00
6853;BME280;3465;42.144;24.722;2023-03-04T02:03:14;143950.41;;;4.10;100.00
6853;BME280;3465;42.144;24.722;2023-03-04T02:05:43;143931.75;;;4.03;100.00
6853;BME280;3465;42.144;24.722;2023-03-04T02:08:09;143936.69;;;4.05;100.00
6853;BME280;3465;42.144;24.722;2023-03-04T02:10:36;143937.97;;;4.05;100.00
6853;BME280;3465;42.144;24.722;2023-03-04T02:13:02;143942.97;;;4.07;100.00
6853;BME280;3465;42.144;24.722;2023-03-04T02:15:29;143931.75;;;4.03;100.00
6853;BME280;3465;42.144;24.722;2023-03-04T02:17:55;143951.69;;;4.11;100.00
6853;BME280;3465;42.144;24.722;2023-03-04T02:20:42;143956.63;;;4.13;100.00
6853;BME280;3465;42.144;24.722;2023-03-04T02:23:24;143957.88;;;4.13;100.00
6853;BME280;3465;42.144;24.722;2023-03-04T02:26:18;143964.09;;;4.16;100.00
6853;BME280;3465;42.144;24.722;2023-03-04T02:28:45;143918.03;;;3.97;100.00
6853;BME280;3465;42.144;24.722;2023-03-04T02:33:52;143970.34;;;4.18;100.00
6853;BME280;3465;42.144;24.722;2023-03-04T02:36:18;143960.34;;;4.14;100.00
6853;BME280;3465;42.144;24.722;2023-03-04T02:38:44;143965.34;;;4.16;100.00
6853;BME280;3465;42.144;24.722;2023-03-04T02:41:14;143930.50;;;4.02;100.00
6853;BME280;3465;42.144;24.722;2023-03-04T02:43:40;143947.94;;;4.09;100.00
6853;BME280;3465;42.144;24.722;2023-03-04T02:46:10;143942.97;;;4.07;100.00
6853;BME280;3465;42.144;24.722;2023-03-04T02:48:36;143936.69;;;4.05;100.00
6853;BME280;3465;42.144;24.722;2023-03-04T02:51:02;143888.19;;;3.85;100.00
6853;BME280;3465;42.144;24.722;2023-03-04T02:53:27;143834.66;;;3.64;100.00
6853;BME280;3465;42.144;24.722;2023-03-04T02:55:52;143847.13;;;3.69;100.00
6853;BME280;3465;42.144;24.722;2023-03-04T02:58:18;143863.28;;;3.75;100.00
6853;BME280;3465;42.144;24.722;2023-03-04T03:00:43;143857.03;;;3.73;100.00
6853;BME280;3465;42.144;24.722;2023-03-04T03:03:09;143819.75;;;3.58;100.00
6853;BME280;3465;42.144;24.722;2023-03-04T03:05:35;143833.41;;;3.63;100.00
6853;BME280;3465;42.144;24.722;2023-03-04T03:08:01;143838.41;;;3.65;100.00
6853;BME280;3465;42.144;24.722;2023-03-04T03:10:27;143833.41;;;3.63;100.00
6853;BME280;3465;42.144;24.722;2023-03-04T03:12:53;143814.75;;;3.56;100.00
6853;BME280;3465;42.144;24.722;2023-03-04T03:15:18;143822.22;;;3.59;100.00
6853;BME280;3465;42.144;24.722;2023-03-04T03:17:44;143786.13;;;3.44;100.00
6853;BME280;3465;42.144;24.722;2023-03-04T03:20:10;143817.22;;;3.57;100.00
6853;BME280;3465;42.144;24.722;2023-03-04T03:22:36;143816.00;;;3.56;100.00
6853;BME280;3465;42.144;24.722;2023-03-04T03:25:03;143761.22;;;3.34;100.00
6853;BME280;3465;42.144;24.722;2023-03-04T03:27:28;143771.22;;;3.38;100.00
6853;BME280;3465;42.144;24.722;2023-03-04T03:29:53;143781.13;;;3.42;100.00
6853;BME280;3465;42.144;24.722;2023-03-04T03:32:19;143677.91;;;3.01;100.00
6853;BME280;3465;42.144;24.722;2023-03-04T03:34:44;143778.66;;;3.41;100.00
6853;BME280;3465;42.144;24.722;2023-03-04T03:37:10;143763.75;;;3.35;100.00
6853;BME280;3465;42.144;24.722;2023-03-04T03:39:35;143797.31;;;3.49;100.00
6853;BME280;3465;42.144;24.722;2023-03-04T03:42:01;143774.94;;;3.40;100.00
6853;BME280;3465;42.144;24.722;2023-03-04T03:44:26;143786.13;;;3.44;100.00
6853;BME280;3465;42.144;24.722;2023-03-04T03:46:51;143788.66;;;3.45;100.00
6853;BME280;3465;42.144;24.722;2023-03-04T03:49:17;143781.13;;;3.42;100.00
6853;BME280;3465;42.144;24.722;2023-03-04T03:51:42;143774.94;;;3.40;100.00
6853;BME280;3465;42.144;24.722;2023-03-04T03:54:08;143772.47;;;3.39;100.00
6853;BME280;3465;42.144;24.722;2023-03-04T03:56:36;143746.31;;;3.28;100.00
6853;BME280;3465;42.144;24.722;2023-03-04T03:59:01;143766.22;;;3.36;100.00
6853;BME280;3465;42.144;24.722;2023-03-04T04:01:27;143758.75;;;3.33;100.00
6853;BME280;3465;42.144;24.722;2023-03-04T04:03:52;143764.97;;;3.36;100.00
6853;BME280;3465;42.144;24.722;2023-03-04T04:06:18;143721.44;;;3.18;100.00
6853;BME280;3465;42.144;24.722;2023-03-04T04:08:43;143727.69;;;3.21;100.00
6853;BME280;3465;42.144;24.722;2023-03-04T04:11:10;143757.50;;;3.33;100.00
6853;BME280;3465;42.144;24.722;2023-03-04T04:13:35;143761.22;;;3.34;100.00
6853;BME280;3465;42.144;24.722;2023-03-04T04:16:01;143774.94;;;3.40;100.00
6853;BME280;3465;42.144;24.722;2023-03-04T04:18:26;143677.91;;;3.01;100.00
6853;BME280;3465;42.144;24.722;2023-03-04T04:20:52;143752.56;;;3.31;100.00
6853;BME280;3465;42.144;24.722;2023-03-04T04:23:17;143748.84;;;3.29;100.00
6853;BME280;3465;42.144;24.722;2023-03-04T04:25:43;143761.22;;;3.34;100.00
6853;BME280;3465;42.144;24.722;2023-03-04T04:28:08;143731.41;;;3.22;100.00
6853;BME280;3465;42.144;24.722;2023-03-04T04:30:34;143757.50;;;3.33;100.00
6853;BME280;3465;42.144;24.722;2023-03-04T04:32:59;143756.28;;;3.32;100.00
6853;BME280;3465;42.144;24.722;2023-03-04T04:35:26;143755.03;;;3.32;100.00
6853;BME280;3465;42.144;24.722;2023-03-04T04:37:52;143745.06;;;3.28;100.00
6853;BME280;3465;42.144;24.722;2023-03-04T04:40:18;143753.78;;;3.31;100.00
6853;BME280;3465;42.144;24.722;2023-03-04T04:42:43;143761.22;;;3.34;100.00
6853;BME280;3465;42.144;24.722;2023-03-04T04:45:09;143771.22;;;3.38;100.00
6853;BME280;3465;42.144;24.722;2023-03-04T04:47:34;143766.22;;;3.36;100.00
6853;BME280;3465;42.144;24.722;2023-03-04T04:50:00;143736.38;;;3.24;100.00
6853;BME280;3465;42.144;24.722;2023-03-04T04:52:25;143738.84;;;3.25;100.00
6853;BME280;3465;42.144;24.722;2023-03-04T04:54:51;143751.31;;;3.30;100.00
6853;BME280;3465;42.144;24.722;2023-03-04T04:57:16;143751.31;;;3.30;100.00
6853;BME280;3465;42.144;24.722;2023-03-04T04:59:42;143755.03;;;3.32;100.00
6853;BME280;3465;42.144;24.722;2023-03-04T05:02:07;143776.19;;;3.40;100.00
6853;BME280;3465;42.144;24.722;2023-03-04T05:04:32;143762.50;;;3.35;100.00
6853;BME280;3465;42.144;24.722;2023-03-04T05:06:58;143746.31;;;3.28;100.00
6853;BME280;3465;42.144;24.722;2023-03-04T05:09:23;143731.41;;;3.22;100.00
6853;BME280;3465;42.144;24.722;2023-03-04T05:11:49;143696.59;;;3.08;100.00
6853;BME280;3465;42.144;24.722;2023-03-04T05:14:14;143741.34;;;3.26;100.00
6853;BME280;3465;42.144;24.722;2023-03-04T05:16:40;143762.50;;;3.35;100.00
6853;BME280;3465;42.144;24.722;2023-03-04T05:19:05;143733.88;;;3.23;100.00
6853;BME280;3465;42.144;24.722;2023-03-04T05:21:31;143743.84;;;3.27;100.00
6853;BME280;3465;42.144;24.722;2023-03-04T05:23:56;143715.22;;;3.16;100.00
6853;BME280;3465;42.144;24.722;2023-03-04T05:26:21;143748.84;;;3.29;100.00
6853;BME280;3465;42.144;24.722;2023-03-04T05:28:47;143696.59;;;3.08;100.00
6853;BME280;3465;42.144;24.722;2023-03-04T05:31:12;143718.97;;;3.17;100.00
6853;BME280;3465;42.144;24.722;2023-03-04T05:33:38;143706.50;;;3.12;100.00
6853;BME280;3465;42.144;24.722;2023-03-04T05:36:05;143735.13;;;3.24;100.00
6853;BME280;3465;42.144;24.722;2023-03-04T05:38:30;143740.13;;;3.26;100.00
6853;BME280;3465;42.144;24.722;2023-03-04T05:41:04;143747.56;;;3.29;100.00
6853;BME280;3465;42.144;24.722;2023-03-04T05:43:31;143745.06;;;3.28;100.00
6853;BME280;3465;42.144;24.722;2023-03-04T05:45:58;143758.75;;;3.33;100.00
6853;BME280;3465;42.144;24.722;2023-03-04T05:48:23;143756.28;;;3.32;100.00
6853;BME280;3465;42.144;24.722;2023-03-04T05:50:57;143721.44;;;3.18;100.00
6853;BME280;3465;42.144;24.722;2023-03-04T05:53:23;143705.25;;;3.12;100.00
6853;BME280;3465;42.144;24.722;2023-03-04T05:55:49;143755.03;;;3.32;100.00
6853;BME280;3465;42.144;24.722;2023-03-04T05:58:15;143757.50;;;3.33;100.00
6853;BME280;3465;42.144;24.722;2023-03-04T06:00:41;143773.69;;;3.39;100.00
6853;BME280;3465;42.144;24.722;2023-03-04T06:03:13;143788.66;;;3.45;100.00
6853;BME280;3465;42.144;24.722;2023-03-04T06:05:39;143787.38;;;3.45;100.00
6853;BME280;3465;42.144;24.722;2023-03-04T06:08:05;143838.41;;;3.65;100.00
6853;BME280;3465;42.144;24.722;2023-03-04T06:10:30;143844.59;;;3.68;100.00
6853;BME280;3465;42.144;24.722;2023-03-04T06:12:55;143860.78;;;3.74;100.00
6853;BME280;3465;42.144;24.722;2023-03-04T06:15:21;143869.50;;;3.78;100.00
6853;BME280;3465;42.144;24.722;2023-03-04T06:17:46;143850.84;;;3.70;100.00
6853;BME280;3465;42.144;24.722;2023-03-04T06:20:12;143881.94;;;3.83;100.00
6853;BME280;3465;42.144;24.722;2023-03-04T06:22:37;143904.34;;;3.92;100.00
6853;BME280;3465;42.144;24.722;2023-03-04T06:25:04;143914.31;;;3.96;100.00
6853;BME280;3465;42.144;24.722;2023-03-04T06:27:29;143914.31;;;3.96;100.00
6853;BME280;3465;42.144;24.722;2023-03-04T06:29:55;143919.31;;;3.98;100.00
6853;BME280;3465;42.144;24.722;2023-03-04T06:32:20;143924.25;;;4.00;100.00
6853;BME280;3465;42.144;24.722;2023-03-04T06:34:46;143928.03;;;4.01;100.00
6853;BME280;3465;42.144;24.722;2023-03-04T06:37:11;143915.56;;;3.96;100.00
6853;BME280;3465;42.144;24.722;2023-03-04T06:39:37;143888.19;;;3.85;100.00
6853;BME280;3465;42.144;24.722;2023-03-04T06:42:02;143884.41;;;3.84;100.00
6853;BME280;3465;42.144;24.722;2023-03-04T06:44:28;143894.41;;;3.88;100.00
6853;BME280;3465;42.144;24.722;2023-03-04T06:46:53;143888.19;;;3.85;100.00
6853;BME280;3465;42.144;24.722;2023-03-04T06:49:18;143873.22;;;3.79;100.00
6853;BME280;3465;42.144;24.722;2023-03-04T06:51:44;143880.69;;;3.82;100.00
6853;BME280;3465;42.144;24.722;2023-03-04T06:54:09;143898.13;;;3.89;100.00
6853;BME280;3465;42.144;24.722;2023-03-04T06:56:35;143919.31;;;3.98;100.00
6853;BME280;3465;42.144;24.722;2023-03-04T06:59:00;143950.41;;;4.10;100.00
6853;BME280;3465;42.144;24.722;2023-03-04T07:01:27;143980.28;;;4.22;100.00
6853;BME280;3465;42.144;24.722;2023-03-04T07:03:54;144008.91;;;4.34;100.00
6853;BME280;3465;42.144;24.722;2023-03-04T07:06:22;144022.63;;;4.39;100.00
6853;BME280;3465;42.144;24.722;2023-03-04T07:08:48;144021.38;;;4.39;100.00
6853;BME280;3465;42.144;24.722;2023-03-04T07:11:14;144086.16;;;4.65;100.00
6853;BME280;3465;42.144;24.722;2023-03-04T07:13:40;144109.81;;;4.75;100.00
6853;BME280;3465;42.144;24.722;2023-03-04T07:16:07;144147.22;;;4.90;100.00
6853;BME280;3465;42.144;24.722;2023-03-04T07:18:34;144148.41;;;4.90;100.00
6853;BME280;3465;42.144;24.722;2023-03-04T07:20:59;144106.09;;;4.73;100.00
6853;BME280;3465;42.144;24.722;2023-03-04T07:23:25;144102.34;;;4.72;100.00
6853;BME280;3465;42.144;24.722;2023-03-04T07:25:50;144007.72;;;4.33;100.00
6853;BME280;3465;42.144;24.722;2023-03-04T07:28:16;144112.28;;;4.76;100.00
6853;BME280;3465;42.144;24.722;2023-03-04T07:30:42;144174.63;;;5.01;100.00
6853;BME280;3465;42.144;24.722;2023-03-04T07:33:07;144205.75;;;5.13;100.00
6853;BME280;3465;42.144;24.722;2023-03-04T07:35:33;144241.91;;;5.28;100.00
6853;BME280;3465;42.144;24.722;2023-03-04T07:37:58;144175.81;;;5.01;100.00
6853;BME280;3465;42.144;24.722;2023-03-04T07:40:24;144211.97;;;5.16;100.00
6853;BME280;3465;42.144;24.722;2023-03-04T07:42:50;144184.56;;;5.05;100.00
6853;BME280;3465;42.144;24.722;2023-03-04T07:45:16;144274.31;;;5.41;100.00
6853;BME280;3465;42.144;24.722;2023-03-04T07:47:41;144266.84;;;5.38;100.00
6853;BME280;3465;42.144;24.722;2023-03-04T07:50:08;144299.19;;;5.51;100.00
6853;BME280;3465;42.144;24.722;2023-03-04T07:52:37;144339.09;;;5.67;100.00
6853;BME280;3465;42.144;24.722;2023-03-04T07:55:03;144341.63;;;5.68;100.00
6853;BME280;3465;42.144;24.722;2023-03-04T07:57:28;144336.63;;;5.66;100.00
6853;BME280;3465;42.144;24.722;2023-03-04T07:59:54;144372.78;;;5.80;100.00
6853;BME280;3465;42.144;24.722;2023-03-04T08:02:19;144404.00;;;5.93;100.00
6853;BME280;3465;42.144;24.722;2023-03-04T08:04:45;144406.53;;;5.94;100.00
6853;BME280;3465;42.144;24.722;2023-03-04T08:07:10;144421.47;;;6.00;100.00
6853;BME280;3465;42.144;24.722;2023-03-04T08:09:35;144433.94;;;6.05;100.00
6853;BME280;3465;42.144;24.722;2023-03-04T08:12:01;144411.47;;;5.96;100.00
6853;BME280;3465;42.144;24.722;2023-03-04T08:14:26;144438.91;;;6.07;100.00
6853;BME280;3465;42.144;24.722;2023-03-04T08:16:52;144427.69;;;6.03;100.00
6853;BME280;3465;42.144;24.722;2023-03-04T08:19:17;144432.69;;;6.05;100.00
6853;BME280;3465;42.144;24.722;2023-03-04T08:21:43;144440.16;;;6.08;100.00
6853;BME280;3465;42.144;24.722;2023-03-04T08:24:09;144480.06;;;6.24;100.00
6853;BME280;3465;42.144;24.722;2023-03-04T08:26:40;144477.59;;;6.23;100.00
6853;BME280;3465;42.144;24.722;2023-03-04T08:29:09;144513.78;;;6.37;100.00
6853;BME280;3465;42.144;24.722;2023-03-04T08:31:34;144518.75;;;6.39;100.00
6853;BME280;3465;42.144;24.722;2023-03-04T08:34:02;144512.53;;;6.37;100.00
6853;BME280;3465;42.144;24.722;2023-03-04T08:36:28;144536.22;;;6.46;100.00
6853;BME280;3465;42.144;24.722;2023-03-04T08:38:53;144568.66;;;6.59;100.00
6853;BME280;3465;42.144;24.722;2023-03-04T08:41:18;144602.34;;;6.73;100.00
6853;BME280;3465;42.144;24.722;2023-03-04T08:43:44;144627.31;;;6.83;100.00
6853;BME280;3465;42.144;24.722;2023-03-04T08:46:10;144593.63;;;6.69;100.00
6853;BME280;3465;42.144;24.722;2023-03-04T08:48:36;144631.03;;;6.84;100.00
6853;BME280;3465;42.144;24.722;2023-03-04T08:51:13;144642.28;;;6.89;100.00
6853;BME280;3465;42.144;24.722;2023-03-04T08:53:39;144681.00;;;7.04;100.00
6853;BME280;3465;42.144;24.722;2023-03-04T08:56:05;144738.41;;;7.27;100.00
6853;BME280;3465;42.144;24.722;2023-03-04T08:58:31;144775.88;;;7.43;100.00
6853;BME280;3465;42.144;24.722;2023-03-04T09:00:58;144865.81;;;7.79;100.00
6853;BME280;3465;42.144;24.722;2023-03-04T09:03:25;144953.28;;;8.14;100.00
6853;BME280;3465;42.144;24.722;2023-03-04T09:05:50;145060.81;;;8.57;100.00
6853;BME280;3465;42.144;24.722;2023-03-04T09:08:16;145248.38;;;9.32;100.00
6853;BME280;3465;42.144;24.722;2023-03-04T09:10:42;145414.75;;;9.99;100.00
6853;BME280;3465;42.144;24.722;2023-03-04T09:13:08;145538.75;;;10.49;100.00
6853;BME280;3465;42.144;24.722;2023-03-04T09:15:36;145637.72;;;10.88;100.00
6853;BME280;3465;42.144;24.722;2023-03-04T09:18:02;145685.31;;;11.07;100.00
6853;BME280;3465;42.144;24.722;2023-03-04T09:20:29;145649.00;;;10.93;100.00
6853;BME280;3465;42.144;24.722;2023-03-04T09:22:54;145646.50;;;10.92;100.00
6853;BME280;3465;42.144;24.722;2023-03-04T09:25:20;145608.91;;;10.77;100.00
6853;BME280;3465;42.144;24.722;2023-03-04T09:27:45;145563.81;;;10.59;100.00
6853;BME280;3465;42.144;24.722;2023-03-04T09:30:11;145498.69;;;10.33;100.00
6853;BME280;3465;42.144;24.722;2023-03-04T09:32:37;145386.00;;;9.87;100.00
6853;BME280;3465;42.144;24.722;2023-03-04T09:35:03;145417.31;;;10.00;100.00
6853;BME280;3465;42.144;24.722;2023-03-04T09:37:28;145433.56;;;10.06;100.00
6853;BME280;3465;42.144;24.722;2023-03-04T09:39:54;145398.50;;;9.92;100.00
6853;BME280;3465;42.144;24.722;2023-03-04T09:42:53;145416.03;;;9.99;100.00
6853;BME280;3465;42.144;24.722;2023-03-04T09:45:22;145479.91;;;10.25;100.00
6853;BME280;3465;42.144;24.722;2023-03-04T09:47:51;145489.97;;;10.29;100.00
6853;BME280;3465;42.144;24.722;2023-03-04T09:50:19;145456.13;;;10.16;100.00
6853;BME280;3465;42.144;24.722;2023-03-04T09:55:33;145705.38;;;11.15;100.00
6853;BME280;3465;42.144;24.722;2023-03-04T09:58:04;145823.13;;;11.63;100.00
6853;BME280;3465;42.144;24.722;2023-03-04T10:00:38;145895.91;;;11.92;100.00
6853;BME280;3465;42.144;24.722;2023-03-04T10:05:55;145889.66;;;11.89;100.00
6853;BME280;3465;42.144;24.722;2023-03-04T10:11:34;145796.84;;;11.52;100.00
6853;BME280;3465;42.144;24.722;2023-03-04T10:14:26;145766.78;;;11.40;100.00
6853;BME280;3465;42.144;24.722;2023-03-04T10:17:18;145706.63;;;11.16;100.00
6853;BME280;3465;42.144;24.722;2023-03-04T10:22:36;145665.28;;;10.99;100.00
6853;BME280;3465;42.144;24.722;2023-03-04T10:27:42;145691.56;;;11.10;100.00
6853;BME280;3465;42.144;24.722;2023-03-04T10:32:56;145588.88;;;10.69;100.00
6853;BME280;3465;42.144;24.722;2023-03-04T10:35:25;145545.03;;;10.51;100.00
6853;BME280;3465;42.144;24.722;2023-03-04T10:37:52;145540.03;;;10.49;100.00
6853;BME280;3465;42.144;24.722;2023-03-04T10:40:23;145547.53;;;10.52;100.00
6853;BME280;3465;42.144;24.722;2023-03-04T10:42:51;145543.78;;;10.51;100.00
6853;BME280;3465;42.144;24.722;2023-03-04T10:45:24;145504.97;;;10.35;100.00
6853;BME280;3465;42.144;24.722;2023-03-04T10:47:52;145451.13;;;10.13;100.00
6853;BME280;3465;42.144;24.722;2023-03-04T10:50:25;145468.66;;;10.21;100.00
6853;BME280;3465;42.144;24.722;2023-03-04T10:52:51;145491.19;;;10.30;100.00
6853;BME280;3465;42.144;24.722;2023-03-04T10:57:50;145542.50;;;10.50;100.00
6853;BME280;3465;42.144;24.722;2023-03-04T11:02:43;145603.88;;;10.75;100.00
6853;BME280;3465;42.144;24.722;2023-03-04T11:05:21;145645.25;;;10.91;100.00
6853;BME280;3465;42.144;24.722;2023-03-04T11:10:28;145709.13;;;11.17;100.00
6853;BME280;3465;42.144;24.722;2023-03-04T11:15:24;145900.94;;;11.94;100.00
6853;BME280;3465;42.144;24.722;2023-03-04T11:18:08;146082.81;;;12.66;100.00
6853;BME280;3465;42.144;24.722;2023-03-04T11:20:38;146102.88;;;12.74;100.00
6853;BME280;3465;42.144;24.722;2023-03-04T11:23:11;146087.84;;;12.68;100.00
6853;BME280;3465;42.144;24.722;2023-03-04T11:25:42;146120.41;;;12.81;100.00
6853;BME280;3465;42.144;24.722;2023-03-04T11:28:18;146168.19;;;13.01;100.00
6853;BME280;3465;42.144;24.722;2023-03-04T11:30:59;146061.47;;;12.58;100.00
6853;BME280;3465;42.144;24.722;2023-03-04T11:33:48;146048.91;;;12.53;100.00
6853;BME280;3465;42.144;24.722;2023-03-04T11:39:18;145924.75;;;12.03;100.00
6853;BME280;3465;42.144;24.722;2023-03-04T11:41:52;145883.38;;;11.87;100.00
6853;BME280;3465;42.144;24.722;2023-03-04T11:44:19;145819.38;;;11.61;100.00
6853;BME280;3465;42.144;24.722;2023-03-04T11:46:53;145761.75;;;11.38;100.00
6853;BME280;3465;42.144;24.722;2023-03-04T11:57:52;145741.72;;;11.30;100.00
6853;BME280;3465;42.144;24.722;2023-03-04T12:00:44;145756.75;;;11.36;100.00
6853;BME280;3465;42.144;24.722;2023-03-04T12:03:48;145776.78;;;11.44;100.00
6853;BME280;3465;42.144;24.722;2023-03-04T12:06:22;145784.31;;;11.47;100.00
6853;BME280;3465;42.144;24.722;2023-03-04T12:14:39;145863.31;;;11.79;100.00
6853;BME280;3465;42.144;24.722;2023-03-04T12:25:37;146060.19;;;12.57;100.00
6853;BME280;3465;42.144;24.722;2023-03-04T12:31:11;146192.03;;;13.10;100.00
6853;BME280;3465;42.144;24.722;2023-03-04T12:34:13;146180.69;;;13.06;100.00
6853;BME280;3465;42.144;24.722;2023-03-04T12:48:29;146272.38;;;13.42;100.00
6853;BME280;3465;42.144;24.722;2023-03-04T12:56:20;146286.16;;;13.48;100.00
6853;BME280;3465;42.144;24.722;2023-03-04T12:58:46;146291.19;;;13.50;100.00
6853;BME280;3465;42.144;24.722;2023-03-04T13:01:22;146294.94;;;13.51;100.00
6853;BME280;3465;42.144;24.722;2023-03-04T13:04:02;146294.94;;;13.51;100.00
6853;BME280;3465;42.144;24.722;2023-03-04T13:06:49;146219.63;;;13.21;100.00
6853;BME280;3465;42.144;24.722;2023-03-04T13:09:29;146192.03;;;13.10;100.00
6853;BME280;3465;42.144;24.722;2023-03-04T13:12:39;146122.94;;;12.82;100.00
6853;BME280;3465;42.144;24.722;2023-03-04T13:17:42;146127.97;;;12.84;100.00
6853;BME280;3465;42.144;24.722;2023-03-04T13:22:58;146134.22;;;12.87;100.00
6853;BME280;3465;42.144;24.722;2023-03-04T13:32:56;146169.41;;;13.01;100.00
6853;BME280;3465;42.144;24.722;2023-03-04T13:48:44;146154.31;;;12.95;100.00
6853;BME280;3465;42.144;24.722;2023-03-04T13:51:35;146094.09;;;12.71;100.00
6853;BME280;3465;42.144;24.722;2023-03-04T13:56:28;146037.63;;;12.48;100.00
6853;BME280;3465;42.144;24.722;2023-03-04T14:01:47;146022.59;;;12.42;100.00
6853;BME280;3465;42.144;24.722;2023-03-04T14:04:25;145964.88;;;12.19;100.00
6853;BME280;3465;42.144;24.722;2023-03-04T14:06:52;145976.16;;;12.24;100.00
6853;BME280;3465;42.144;24.722;2023-03-04T14:09:21;145972.41;;;12.22;100.00
6853;BME280;3465;42.144;24.722;2023-03-04T14:11:49;145943.53;;;12.11;100.00
6853;BME280;3465;42.144;24.722;2023-03-04T14:14:18;145927.28;;;12.04;100.00
6853;BME280;3465;42.144;24.722;2023-03-04T14:17:02;145867.09;;;11.80;100.00
6853;BME280;3465;42.144;24.722;2023-03-04T14:19:38;145863.31;;;11.79;100.00
6853;BME280;3465;42.144;24.722;2023-03-04T14:25:06;145872.09;;;11.82;100.00
6853;BME280;3465;42.144;24.722;2023-03-04T14:27:41;145897.16;;;11.92;100.00
6853;BME280;3465;42.144;24.722;2023-03-04T14:30:20;145939.78;;;12.09;100.00
6853;BME280;3465;42.144;24.722;2023-03-04T14:32:46;145952.34;;;12.14;100.00
6853;BME280;3465;42.144;24.722;2023-03-04T14:35:21;145952.34;;;12.14;100.00
6853;BME280;3465;42.144;24.722;2023-03-04T14:37:58;145919.72;;;12.01;100.00
6853;BME280;3465;42.144;24.722;2023-03-04T14:40:38;145903.41;;;11.95;100.00
6853;BME280;3465;42.144;24.722;2023-03-04T14:43:11;145922.25;;;12.02;100.00
6853;BME280;3465;42.144;24.722;2023-03-04T14:45:39;145902.19;;;11.94;100.00
6853;BME280;3465;42.144;24.722;2023-03-04T14:48:05;145854.56;;;11.75;100.00
6853;BME280;3465;42.144;24.722;2023-03-04T14:50:32;145899.66;;;11.93;100.00
6853;BME280;3465;42.144;24.722;2023-03-04T14:53:14;145869.59;;;11.81;100.00